sensor_id;sensor_type;location;lat;lon;timestamp;P1;durP1;ratioP1;P2;durP2;ratioP2
60993;SDS011;47611;54.932;73.338;2022-09-16T00:00:55;63.42;;;25.52;;
60993;SDS011;47611;54.932;73.338;2022-09-16T00:03:21;58.53;;;23.95;;
60993;SDS011;47611;54.932;73.338;2022-09-16T00:05:48;57.75;;;24.23;;
60993;SDS011;47611;54.932;73.338;2022-09-16T00:08:15;61.60;;;24.95;;
60993;SDS011;47611;54.932;73.338;2022-09-16T00:10:41;61.65;;;25.17;;
60993;SDS011;47611;54.932;73.338;2022-09-16T00:13:18;63.35;;;24.45;;
60993;SDS011;47611;54.932;73.338;2022-09-16T00:15:49;63.35;;;24.92;;
60993;SDS011;47611;54.932;73.338;2022-09-16T00:18:15;60.58;;;23.48;;
60993;SDS011;47611;54.932;73.338;2022-09-16T00:20:51;68.10;;;27.55;;
60993;SDS011;47611;54.932;73.338;2022-09-16T00:23:29;72.13;;;26.73;;
60993;SDS011;47611;54.932;73.338;2022-09-16T00:25:55;69.57;;;28.13;;
60993;SDS011;47611;54.932;73.338;2022-09-16T00:28:31;69.00;;;27.67;;
60993;SDS011;47611;54.932;73.338;2022-09-16T00:30:58;67.15;;;28.13;;
60993;SDS011;47611;54.932;73.338;2022-09-16T00:33:24;67.53;;;27.52;;
60993;SDS011;47611;54.932;73.338;2022-09-16T00:36:11;67.80;;;27.98;;
60993;SDS011;47611;54.932;73.338;2022-09-16T00:38:37;78.13;;;28.58;;
60993;SDS011;47611;54.932;73.338;2022-09-16T00:41:04;69.35;;;28.30;;
60993;SDS011;47611;54.932;73.338;2022-09-16T00:43:51;74.90;;;30.08;;
60993;SDS011;47611;54.932;73.338;2022-09-16T00:46:29;80.72;;;30.70;;
60993;SDS011;47611;54.932;73.338;2022-09-16T00:48:56;85.40;;;32.42;;
60993;SDS011;47611;54.932;73.338;2022-09-16T00:51:23;84.50;;;32.63;;
60993;SDS011;47611;54.932;73.338;2022-09-16T00:53:51;97.32;;;34.53;;
60993;SDS011;47611;54.932;73.338;2022-09-16T00:56:21;91.20;;;35.83;;
60993;SDS011;47611;54.932;73.338;2022-09-16T01:01:47;110.32;;;38.85;;
60993;SDS011;47611;54.932;73.338;2022-09-16T01:04:18;98.95;;;37.13;;
60993;SDS011;47611;54.932;73.338;2022-09-16T01:06:44;92.72;;;36.55;;
60993;SDS011;47611;54.932;73.338;2022-09-16T01:09:11;95.78;;;35.88;;
60993;SDS011;47611;54.932;73.338;2022-09-16T01:11:37;92.13;;;35.92;;
60993;SDS011;47611;54.932;73.338;2022-09-16T01:14:03;103.28;;;35.53;;
60993;SDS011;47611;54.932;73.338;2022-09-16T01:16:54;87.85;;;33.53;;
60993;SDS011;47611;54.932;73.338;2022-09-16T01:19:36;88.00;;;33.58;;
60993;SDS011;47611;54.932;73.338;2022-09-16T01:24:33;79.57;;;33.03;;
60993;SDS011;47611;54.932;73.338;2022-09-16T01:32:14;79.78;;;33.03;;
60993;SDS011;47611;54.932;73.338;2022-09-16T01:35:06;84.78;;;34.85;;
60993;SDS011;47611;54.932;73.338;2022-09-16T01:45:03;95.18;;;36.10;;
60993;SDS011;47611;54.932;73.338;2022-09-16T01:47:49;99.18;;;34.28;;
60993;SDS011;47611;54.932;73.338;2022-09-16T01:50:26;93.72;;;35.00;;
60993;SDS011;47611;54.932;73.338;2022-09-16T01:53:02;92.45;;;32.97;;
60993;SDS011;47611;54.932;73.338;2022-09-16T01:55:52;84.85;;;32.20;;
60993;SDS011;47611;54.932;73.338;2022-09-16T02:00:50;92.07;;;32.60;;
60993;SDS011;47611;54.932;73.338;2022-09-16T02:03:19;83.82;;;30.63;;
60993;SDS011;47611;54.932;73.338;2022-09-16T02:05:47;72.55;;;29.58;;
60993;SDS011;47611;54.932;73.338;2022-09-16T02:08:19;76.20;;;28.33;;
60993;SDS011;47611;54.932;73.338;2022-09-16T02:10:48;70.93;;;29.70;;
60993;SDS011;47611;54.932;73.338;2022-09-16T02:13:20;79.95;;;29.55;;
60993;SDS011;47611;54.932;73.338;2022-09-16T02:15:48;87.03;;;29.15;;
60993;SDS011;47611;54.932;73.338;2022-09-16T02:18:16;93.80;;;30.17;;
60993;SDS011;47611;54.932;73.338;2022-09-16T02:20:45;80.00;;;29.70;;
60993;SDS011;47611;54.932;73.338;2022-09-16T02:23:17;83.15;;;32.33;;
60993;SDS011;47611;54.932;73.338;2022-09-16T02:25:45;86.05;;;30.65;;
60993;SDS011;47611;54.932;73.338;2022-09-16T02:28:25;95.07;;;31.50;;
60993;SDS011;47611;54.932;73.338;2022-09-16T02:30:59;96.07;;;33.08;;
60993;SDS011;47611;54.932;73.338;2022-09-16T02:33:29;92.05;;;33.97;;
60993;SDS011;47611;54.932;73.338;2022-09-16T02:36:08;92.30;;;32.40;;
60993;SDS011;47611;54.932;73.338;2022-09-16T02:38:36;88.18;;;31.65;;
60993;SDS011;47611;54.932;73.338;2022-09-16T02:41:04;71.30;;;28.80;;
60993;SDS011;47611;54.932;73.338;2022-09-16T02:43:41;69.25;;;26.90;;
60993;SDS011;47611;54.932;73.338;2022-09-16T02:48:56;121.85;;;48.92;;
60993;SDS011;47611;54.932;73.338;2022-09-16T02:56:36;122.47;;;54.55;;
60993;SDS011;47611;54.932;73.338;2022-09-16T02:59:04;117.78;;;49.97;;
60993;SDS011;47611;54.932;73.338;2022-09-16T03:01:31;104.43;;;44.50;;
60993;SDS011;47611;54.932;73.338;2022-09-16T03:06:29;98.85;;;40.20;;
60993;SDS011;47611;54.932;73.338;2022-09-16T03:09:00;102.55;;;38.50;;
60993;SDS011;47611;54.932;73.338;2022-09-16T03:11:44;79.90;;;38.03;;
60993;SDS011;47611;54.932;73.338;2022-09-16T03:27:12;79.63;;;31.70;;
60993;SDS011;47611;54.932;73.338;2022-09-16T03:30:02;60.20;;;28.10;;
60993;SDS011;47611;54.932;73.338;2022-09-16T03:32:28;70.57;;;27.77;;
60993;SDS011;47611;54.932;73.338;2022-09-16T03:37:27;60.15;;;27.35;;
60993;SDS011;47611;54.932;73.338;2022-09-16T03:39:57;56.03;;;25.75;;
60993;SDS011;47611;54.932;73.338;2022-09-16T03:42:24;52.95;;;22.67;;
60993;SDS011;47611;54.932;73.338;2022-09-16T03:44:54;52.05;;;22.35;;
60993;SDS011;47611;54.932;73.338;2022-09-16T03:47:20;45.65;;;20.05;;
60993;SDS011;47611;54.932;73.338;2022-09-16T03:49:51;39.60;;;19.83;;
60993;SDS011;47611;54.932;73.338;2022-09-16T03:52:22;54.58;;;19.15;;
60993;SDS011;47611;54.932;73.338;2022-09-16T03:54:48;42.70;;;17.45;;
60993;SDS011;47611;54.932;73.338;2022-09-16T03:57:14;40.75;;;17.80;;
60993;SDS011;47611;54.932;73.338;2022-09-16T03:59:40;33.30;;;16.30;;
60993;SDS011;47611;54.932;73.338;2022-09-16T04:02:12;34.92;;;16.33;;
60993;SDS011;47611;54.932;73.338;2022-09-16T04:04:38;38.40;;;17.13;;
60993;SDS011;47611;54.932;73.338;2022-09-16T04:07:04;33.92;;;16.48;;
60993;SDS011;47611;54.932;73.338;2022-09-16T04:09:34;43.65;;;17.70;;
60993;SDS011;47611;54.932;73.338;2022-09-16T04:12:02;35.67;;;15.88;;
60993;SDS011;47611;54.932;73.338;2022-09-16T04:14:39;36.92;;;15.57;;
60993;SDS011;47611;54.932;73.338;2022-09-16T04:17:05;30.33;;;14.63;;
60993;SDS011;47611;54.932;73.338;2022-09-16T04:19:31;31.13;;;14.73;;
60993;SDS011;47611;54.932;73.338;2022-09-16T04:21:57;27.17;;;14.70;;
60993;SDS011;47611;54.932;73.338;2022-09-16T04:24:23;25.25;;;13.48;;
60993;SDS011;47611;54.932;73.338;2022-09-16T04:26:49;32.50;;;12.75;;
60993;SDS011;47611;54.932;73.338;2022-09-16T04:29:15;49.70;;;14.32;;
60993;SDS011;47611;54.932;73.338;2022-09-16T04:31:42;25.35;;;12.48;;
60993;SDS011;47611;54.932;73.338;2022-09-16T04:34:08;29.95;;;12.23;;
60993;SDS011;47611;54.932;73.338;2022-09-16T04:36:36;27.33;;;11.00;;
60993;SDS011;47611;54.932;73.338;2022-09-16T04:39:02;23.55;;;9.90;;
60993;SDS011;47611;54.932;73.338;2022-09-16T04:41:28;19.92;;;9.63;;
60993;SDS011;47611;54.932;73.338;2022-09-16T04:43:55;25.67;;;9.55;;
60993;SDS011;47611;54.932;73.338;2022-09-16T04:46:22;20.00;;;8.15;;
60993;SDS011;47611;54.932;73.338;2022-09-16T04:48:57;33.10;;;13.90;;
60993;SDS011;47611;54.932;73.338;2022-09-16T04:51:24;17.88;;;7.60;;
60993;SDS011;47611;54.932;73.338;2022-09-16T04:54:04;23.30;;;8.75;;
60993;SDS011;47611;54.932;73.338;2022-09-16T04:56:31;16.98;;;7.55;;
60993;SDS011;47611;54.932;73.338;2022-09-16T04:59:08;23.60;;;7.43;;
60993;SDS011;47611;54.932;73.338;2022-09-16T05:01:36;19.58;;;7.50;;
60993;SDS011;47611;54.932;73.338;2022-09-16T05:04:03;19.50;;;7.05;;
60993;SDS011;47611;54.932;73.338;2022-09-16T05:06:30;23.95;;;7.88;;
60993;SDS011;47611;54.932;73.338;2022-09-16T05:08:57;23.30;;;7.60;;
60993;SDS011;47611;54.932;73.338;2022-09-16T05:11:24;32.85;;;8.18;;
60993;SDS011;47611;54.932;73.338;2022-09-16T05:13:50;19.65;;;7.65;;
60993;SDS011;47611;54.932;73.338;2022-09-16T05:16:21;15.48;;;6.93;;
60993;SDS011;47611;54.932;73.338;2022-09-16T05:18:48;16.27;;;7.38;;
60993;SDS011;47611;54.932;73.338;2022-09-16T05:21:19;15.60;;;7.15;;
60993;SDS011;47611;54.932;73.338;2022-09-16T05:23:50;14.55;;;7.25;;
60993;SDS011;47611;54.932;73.338;2022-09-16T05:26:20;17.42;;;8.48;;
60993;SDS011;47611;54.932;73.338;2022-09-16T05:28:46;15.65;;;6.75;;
60993;SDS011;47611;54.932;73.338;2022-09-16T05:33:40;8.40;;;5.20;;
60993;SDS011;47611;54.932;73.338;2022-09-16T05:36:16;10.07;;;5.78;;
60993;SDS011;47611;54.932;73.338;2022-09-16T05:38:42;22.95;;;6.00;;
60993;SDS011;47611;54.932;73.338;2022-09-16T05:41:13;20.10;;;6.03;;
60993;SDS011;47611;54.932;73.338;2022-09-16T05:43:39;27.35;;;6.90;;
60993;SDS011;47611;54.932;73.338;2022-09-16T05:46:19;15.75;;;5.35;;
60993;SDS011;47611;54.932;73.338;2022-09-16T05:48:45;12.63;;;5.38;;
60993;SDS011;47611;54.932;73.338;2022-09-16T05:51:16;9.60;;;5.35;;
60993;SDS011;47611;54.932;73.338;2022-09-16T05:53:42;19.42;;;6.35;;
60993;SDS011;47611;54.932;73.338;2022-09-16T05:56:10;18.38;;;6.40;;
60993;SDS011;47611;54.932;73.338;2022-09-16T05:58:37;16.85;;;6.63;;
60993;SDS011;47611;54.932;73.338;2022-09-16T06:01:17;12.77;;;6.32;;
60993;SDS011;47611;54.932;73.338;2022-09-16T06:03:44;21.35;;;6.20;;
60993;SDS011;47611;54.932;73.338;2022-09-16T06:06:12;27.10;;;7.47;;
60993;SDS011;47611;54.932;73.338;2022-09-16T06:08:39;12.52;;;5.90;;
60993;SDS011;47611;54.932;73.338;2022-09-16T06:11:06;10.00;;;5.70;;
60993;SDS011;47611;54.932;73.338;2022-09-16T06:13:32;11.18;;;5.60;;
60993;SDS011;47611;54.932;73.338;2022-09-16T06:16:04;11.02;;;5.95;;
60993;SDS011;47611;54.932;73.338;2022-09-16T06:18:30;9.57;;;5.20;;
60993;SDS011;47611;54.932;73.338;2022-09-16T06:20:57;12.27;;;5.80;;
60993;SDS011;47611;54.932;73.338;2022-09-16T06:23:31;11.23;;;6.05;;
60993;SDS011;47611;54.932;73.338;2022-09-16T06:26:09;12.35;;;6.68;;
60993;SDS011;47611;54.932;73.338;2022-09-16T06:28:36;15.13;;;10.25;;
60993;SDS011;47611;54.932;73.338;2022-09-16T06:31:10;13.48;;;8.13;;
60993;SDS011;47611;54.932;73.338;2022-09-16T06:33:40;10.48;;;6.57;;
60993;SDS011;47611;54.932;73.338;2022-09-16T06:36:18;9.45;;;6.15;;
60993;SDS011;47611;54.932;73.338;2022-09-16T06:38:44;19.25;;;12.10;;
60993;SDS011;47611;54.932;73.338;2022-09-16T06:41:11;25.30;;;13.57;;
60993;SDS011;47611;54.932;73.338;2022-09-16T06:43:45;16.58;;;9.90;;
60993;SDS011;47611;54.932;73.338;2022-09-16T06:46:15;10.93;;;7.00;;
60993;SDS011;47611;54.932;73.338;2022-09-16T06:48:47;10.55;;;5.32;;
60993;SDS011;47611;54.932;73.338;2022-09-16T06:51:25;21.10;;;6.25;;
60993;SDS011;47611;54.932;73.338;2022-09-16T06:53:51;30.48;;;7.13;;
60993;SDS011;47611;54.932;73.338;2022-09-16T06:56:18;65.00;;;9.35;;
60993;SDS011;47611;54.932;73.338;2022-09-16T06:58:51;20.63;;;5.90;;
60993;SDS011;47611;54.932;73.338;2022-09-16T07:01:19;27.00;;;5.97;;
60993;SDS011;47611;54.932;73.338;2022-09-16T07:03:46;19.15;;;5.30;;
60993;SDS011;47611;54.932;73.338;2022-09-16T07:06:13;9.32;;;4.85;;
60993;SDS011;47611;54.932;73.338;2022-09-16T07:08:39;56.15;;;8.13;;
60993;SDS011;47611;54.932;73.338;2022-09-16T07:11:23;32.53;;;5.40;;
60993;SDS011;47611;54.932;73.338;2022-09-16T07:13:49;10.00;;;4.53;;
60993;SDS011;47611;54.932;73.338;2022-09-16T07:16:19;11.45;;;4.32;;
60993;SDS011;47611;54.932;73.338;2022-09-16T07:18:46;9.85;;;4.60;;
60993;SDS011;47611;54.932;73.338;2022-09-16T07:21:18;32.50;;;6.88;;
60993;SDS011;47611;54.932;73.338;2022-09-16T07:23:50;17.05;;;4.60;;
60993;SDS011;47611;54.932;73.338;2022-09-16T07:26:17;8.45;;;3.90;;
60993;SDS011;47611;54.932;73.338;2022-09-16T07:28:44;6.25;;;4.13;;
60993;SDS011;47611;54.932;73.338;2022-09-16T07:31:14;15.20;;;4.45;;
60993;SDS011;47611;54.932;73.338;2022-09-16T07:33:42;8.68;;;4.20;;
60993;SDS011;47611;54.932;73.338;2022-09-16T07:36:10;16.55;;;4.78;;
60993;SDS011;47611;54.932;73.338;2022-09-16T07:38:46;33.50;;;5.40;;
60993;SDS011;47611;54.932;73.338;2022-09-16T07:41:14;83.72;;;7.43;;
60993;SDS011;47611;54.932;73.338;2022-09-16T07:46:17;8.75;;;3.75;;
60993;SDS011;47611;54.932;73.338;2022-09-16T07:48:45;8.23;;;3.80;;
60993;SDS011;47611;54.932;73.338;2022-09-16T07:51:15;8.50;;;3.80;;
60993;SDS011;47611;54.932;73.338;2022-09-16T07:53:42;27.40;;;5.50;;
60993;SDS011;47611;54.932;73.338;2022-09-16T07:56:14;14.85;;;3.83;;
60993;SDS011;47611;54.932;73.338;2022-09-16T07:58:49;18.40;;;4.25;;
60993;SDS011;47611;54.932;73.338;2022-09-16T08:01:15;26.45;;;4.18;;
60993;SDS011;47611;54.932;73.338;2022-09-16T08:03:42;20.48;;;4.60;;
60993;SDS011;47611;54.932;73.338;2022-09-16T08:06:09;18.13;;;3.92;;
60993;SDS011;47611;54.932;73.338;2022-09-16T08:08:37;24.50;;;5.70;;
60993;SDS011;47611;54.932;73.338;2022-09-16T08:11:03;15.68;;;4.82;;
60993;SDS011;47611;54.932;73.338;2022-09-16T08:13:35;11.60;;;3.97;;
60993;SDS011;47611;54.932;73.338;2022-09-16T08:18:58;10.93;;;4.25;;
60993;SDS011;47611;54.932;73.338;2022-09-16T08:21:25;15.32;;;3.95;;
60993;SDS011;47611;54.932;73.338;2022-09-16T08:23:57;5.80;;;3.50;;
60993;SDS011;47611;54.932;73.338;2022-09-16T08:26:23;22.85;;;4.72;;
60993;SDS011;47611;54.932;73.338;2022-09-16T08:28:54;15.02;;;4.28;;
60993;SDS011;47611;54.932;73.338;2022-09-16T08:31:21;6.43;;;3.40;;
60993;SDS011;47611;54.932;73.338;2022-09-16T08:33:47;8.05;;;3.45;;
60993;SDS011;47611;54.932;73.338;2022-09-16T08:36:16;7.13;;;3.40;;
60993;SDS011;47611;54.932;73.338;2022-09-16T08:38:45;17.60;;;4.68;;
60993;SDS011;47611;54.932;73.338;2022-09-16T08:46:25;24.15;;;4.18;;
60993;SDS011;47611;54.932;73.338;2022-09-16T08:51:24;20.45;;;4.00;;
60993;SDS011;47611;54.932;73.338;2022-09-16T08:54:02;28.55;;;4.78;;
60993;SDS011;47611;54.932;73.338;2022-09-16T08:56:30;6.97;;;3.67;;
60993;SDS011;47611;54.932;73.338;2022-09-16T08:58:59;29.45;;;5.50;;
60993;SDS011;47611;54.932;73.338;2022-09-16T09:04:28;33.45;;;4.97;;
60993;SDS011;47611;54.932;73.338;2022-09-16T09:09:34;21.90;;;5.03;;
60993;SDS011;47611;54.932;73.338;2022-09-16T09:12:09;37.63;;;4.85;;
60993;SDS011;47611;54.932;73.338;2022-09-16T09:23:23;17.15;;;5.68;;
60993;SDS011;47611;54.932;73.338;2022-09-16T09:33:58;12.07;;;3.35;;
60993;SDS011;47611;54.932;73.338;2022-09-16T09:44:13;35.55;;;4.65;;
60993;SDS011;47611;54.932;73.338;2022-09-16T09:46:45;35.78;;;5.63;;
60993;SDS011;47611;54.932;73.338;2022-09-16T09:49:20;37.55;;;6.22;;
60993;SDS011;47611;54.932;73.338;2022-09-16T09:52:00;26.88;;;4.32;;
60993;SDS011;47611;54.932;73.338;2022-09-16T09:54:27;36.25;;;5.55;;
60993;SDS011;47611;54.932;73.338;2022-09-16T09:59:47;17.50;;;4.20;;
60993;SDS011;47611;54.932;73.338;2022-09-16T10:02:19;13.00;;;3.60;;
60993;SDS011;47611;54.932;73.338;2022-09-16T10:04:45;26.85;;;7.80;;
60993;SDS011;47611;54.932;73.338;2022-09-16T10:07:12;24.25;;;5.38;;
60993;SDS011;47611;54.932;73.338;2022-09-16T10:10:13;12.60;;;4.88;;
60993;SDS011;47611;54.932;73.338;2022-09-16T10:12:37;26.25;;;5.13;;
60993;SDS011;47611;54.932;73.338;2022-09-16T10:15:21;10.90;;;3.65;;
60993;SDS011;47611;54.932;73.338;2022-09-16T10:17:48;22.73;;;4.32;;
60993;SDS011;47611;54.932;73.338;2022-09-16T10:20:24;7.00;;;2.90;;
60993;SDS011;47611;54.932;73.338;2022-09-16T10:23:05;27.80;;;4.63;;
60993;SDS011;47611;54.932;73.338;2022-09-16T10:25:39;14.55;;;3.00;;
60993;SDS011;47611;54.932;73.338;2022-09-16T10:30:48;11.77;;;3.40;;
60993;SDS011;47611;54.932;73.338;2022-09-16T10:33:25;64.75;;;7.25;;
60993;SDS011;47611;54.932;73.338;2022-09-16T10:36:04;44.13;;;5.32;;
60993;SDS011;47611;54.932;73.338;2022-09-16T10:38:41;43.80;;;4.60;;
60993;SDS011;47611;54.932;73.338;2022-09-16T10:41:15;16.85;;;3.50;;
60993;SDS011;47611;54.932;73.338;2022-09-16T10:46:36;72.05;;;14.38;;
60993;SDS011;47611;54.932;73.338;2022-09-16T10:49:09;31.67;;;8.48;;
60993;SDS011;47611;54.932;73.338;2022-09-16T10:51:37;3.35;;;2.80;;
60993;SDS011;47611;54.932;73.338;2022-09-16T10:54:03;5.45;;;2.72;;
60993;SDS011;47611;54.932;73.338;2022-09-16T10:56:31;4.07;;;2.47;;
60993;SDS011;47611;54.932;73.338;2022-09-16T10:59:05;5.32;;;3.05;;
60993;SDS011;47611;54.932;73.338;2022-09-16T11:01:41;9.35;;;2.88;;
60993;SDS011;47611;54.932;73.338;2022-09-16T11:09:33;9.40;;;3.67;;
60993;SDS011;47611;54.932;73.338;2022-09-16T11:12:21;7.93;;;3.00;;
60993;SDS011;47611;54.932;73.338;2022-09-16T11:17:51;7.65;;;3.05;;
60993;SDS011;47611;54.932;73.338;2022-09-16T11:42:29;13.40;;;8.88;;
60993;SDS011;47611;54.932;73.338;2022-09-16T11:50:35;8.60;;;3.90;;
60993;SDS011;47611;54.932;73.338;2022-09-16T11:56:11;18.52;;;6.03;;
60993;SDS011;47611;54.932;73.338;2022-09-16T11:58:49;38.85;;;22.02;;
60993;SDS011;47611;54.932;73.338;2022-09-16T12:09:22;18.02;;;8.10;;
60993;SDS011;47611;54.932;73.338;2022-09-16T12:12:18;16.52;;;7.63;;
60993;SDS011;47611;54.932;73.338;2022-09-16T12:14:50;26.77;;;14.85;;
60993;SDS011;47611;54.932;73.338;2022-09-16T12:17:29;31.02;;;14.27;;
60993;SDS011;47611;54.932;73.338;2022-09-16T12:19:58;33.75;;;13.68;;
60993;SDS011;47611;54.932;73.338;2022-09-16T12:22:29;43.80;;;15.82;;
60993;SDS011;47611;54.932;73.338;2022-09-16T12:27:50;35.50;;;17.20;;
60993;SDS011;47611;54.932;73.338;2022-09-16T12:30:20;34.00;;;16.42;;
60993;SDS011;47611;54.932;73.338;2022-09-16T12:35:37;30.00;;;13.32;;
60993;SDS011;47611;54.932;73.338;2022-09-16T12:38:04;28.48;;;12.20;;
60993;SDS011;47611;54.932;73.338;2022-09-16T12:41:04;21.17;;;9.85;;
60993;SDS011;47611;54.932;73.338;2022-09-16T12:43:54;17.60;;;8.95;;
60993;SDS011;47611;54.932;73.338;2022-09-16T12:57:09;25.60;;;11.40;;
60993;SDS011;47611;54.932;73.338;2022-09-16T13:02:18;27.80;;;12.55;;
60993;SDS011;47611;54.932;73.338;2022-09-16T13:04:47;29.77;;;12.97;;
60993;SDS011;47611;54.932;73.338;2022-09-16T13:07:22;31.67;;;13.38;;
60993;SDS011;47611;54.932;73.338;2022-09-16T13:09:57;29.42;;;13.52;;
60993;SDS011;47611;54.932;73.338;2022-09-16T13:12:25;33.95;;;16.13;;
60993;SDS011;47611;54.932;73.338;2022-09-16T13:14:56;32.90;;;15.68;;
60993;SDS011;47611;54.932;73.338;2022-09-16T13:17:30;35.55;;;16.55;;
60993;SDS011;47611;54.932;73.338;2022-09-16T13:20:18;39.88;;;16.23;;
60993;SDS011;47611;54.932;73.338;2022-09-16T13:22:47;37.83;;;17.08;;
60993;SDS011;47611;54.932;73.338;2022-09-16T13:25:20;46.38;;;18.20;;
60993;SDS011;47611;54.932;73.338;2022-09-16T13:28:01;36.07;;;16.57;;
60993;SDS011;47611;54.932;73.338;2022-09-16T13:30:37;38.20;;;17.15;;
60993;SDS011;47611;54.932;73.338;2022-09-16T13:38:10;44.17;;;21.67;;
60993;SDS011;47611;54.932;73.338;2022-09-16T13:40:36;48.42;;;21.15;;
60993;SDS011;47611;54.932;73.338;2022-09-16T13:45:43;48.95;;;24.08;;
60993;SDS011;47611;54.932;73.338;2022-09-16T13:48:14;57.53;;;26.67;;
60993;SDS011;47611;54.932;73.338;2022-09-16T13:50:41;63.73;;;29.70;;
60993;SDS011;47611;54.932;73.338;2022-09-16T13:53:17;70.35;;;31.55;;
60993;SDS011;47611;54.932;73.338;2022-09-16T13:55:49;73.70;;;33.22;;
60993;SDS011;47611;54.932;73.338;2022-09-16T13:58:27;84.78;;;41.83;;
60993;SDS011;47611;54.932;73.338;2022-09-16T14:01:16;126.40;;;57.40;;
60993;SDS011;47611;54.932;73.338;2022-09-16T14:03:55;189.10;;;90.47;;
60993;SDS011;47611;54.932;73.338;2022-09-16T14:06:38;190.82;;;93.07;;
60993;SDS011;47611;54.932;73.338;2022-09-16T14:11:42;156.20;;;76.47;;
60993;SDS011;47611;54.932;73.338;2022-09-16T14:14:13;111.00;;;53.78;;
60993;SDS011;47611;54.932;73.338;2022-09-16T14:16:46;82.05;;;42.25;;
60993;SDS011;47611;54.932;73.338;2022-09-16T14:19:23;87.97;;;41.08;;
60993;SDS011;47611;54.932;73.338;2022-09-16T14:22:03;76.32;;;35.95;;
60993;SDS011;47611;54.932;73.338;2022-09-16T14:24:35;71.20;;;35.95;;
60993;SDS011;47611;54.932;73.338;2022-09-16T14:27:05;72.60;;;35.58;;
60993;SDS011;47611;54.932;73.338;2022-09-16T14:29:31;86.03;;;38.75;;
60993;SDS011;47611;54.932;73.338;2022-09-16T14:31:57;85.65;;;41.42;;
60993;SDS011;47611;54.932;73.338;2022-09-16T14:34:34;98.80;;;49.53;;
60993;SDS011;47611;54.932;73.338;2022-09-16T14:37:00;90.30;;;47.78;;
60993;SDS011;47611;54.932;73.338;2022-09-16T14:39:26;83.53;;;46.28;;
60993;SDS011;47611;54.932;73.338;2022-09-16T14:41:57;77.30;;;41.47;;
60993;SDS011;47611;54.932;73.338;2022-09-16T14:44:25;72.60;;;40.13;;
60993;SDS011;47611;54.932;73.338;2022-09-16T14:46:54;69.28;;;36.53;;
60993;SDS011;47611;54.932;73.338;2022-09-16T14:49:22;78.95;;;40.55;;
60993;SDS011;47611;54.932;73.338;2022-09-16T14:51:58;74.18;;;40.08;;
60993;SDS011;47611;54.932;73.338;2022-09-16T14:54:34;80.25;;;41.13;;
60993;SDS011;47611;54.932;73.338;2022-09-16T14:57:18;67.80;;;36.40;;
60993;SDS011;47611;54.932;73.338;2022-09-16T14:59:47;65.60;;;36.10;;
60993;SDS011;47611;54.932;73.338;2022-09-16T15:04:40;146.50;;;68.25;;
60993;SDS011;47611;54.932;73.338;2022-09-16T15:07:29;168.85;;;85.05;;
60993;SDS011;47611;54.932;73.338;2022-09-16T15:10:05;216.40;;;119.47;;
60993;SDS011;47611;54.932;73.338;2022-09-16T15:12:42;228.40;;;121.30;;
60993;SDS011;47611;54.932;73.338;2022-09-16T15:15:19;208.95;;;115.03;;
60993;SDS011;47611;54.932;73.338;2022-09-16T15:17:51;75.45;;;38.15;;
60993;SDS011;47611;54.932;73.338;2022-09-16T15:20:31;65.18;;;34.22;;
60993;SDS011;47611;54.932;73.338;2022-09-16T15:23:04;68.72;;;38.25;;
60993;SDS011;47611;54.932;73.338;2022-09-16T15:25:32;90.10;;;47.55;;
60993;SDS011;47611;54.932;73.338;2022-09-16T15:30:34;74.72;;;39.72;;
60993;SDS011;47611;54.932;73.338;2022-09-16T15:35:48;62.00;;;32.38;;
60993;SDS011;47611;54.932;73.338;2022-09-16T15:38:24;58.47;;;29.75;;
60993;SDS011;47611;54.932;73.338;2022-09-16T15:41:01;52.38;;;26.27;;
60993;SDS011;47611;54.932;73.338;2022-09-16T15:43:29;50.35;;;24.85;;
60993;SDS011;47611;54.932;73.338;2022-09-16T15:46:11;51.15;;;24.17;;
60993;SDS011;47611;54.932;73.338;2022-09-16T15:48:54;50.47;;;24.30;;
60993;SDS011;47611;54.932;73.338;2022-09-16T15:53:51;56.70;;;26.35;;
60993;SDS011;47611;54.932;73.338;2022-09-16T15:56:24;66.15;;;25.77;;
60993;SDS011;47611;54.932;73.338;2022-09-16T15:59:05;62.58;;;28.30;;
60993;SDS011;47611;54.932;73.338;2022-09-16T16:01:45;57.83;;;27.45;;
60993;SDS011;47611;54.932;73.338;2022-09-16T16:04:21;57.97;;;27.10;;
60993;SDS011;47611;54.932;73.338;2022-09-16T16:11:58;56.97;;;26.20;;
60993;SDS011;47611;54.932;73.338;2022-09-16T16:14:28;74.47;;;32.20;;
60993;SDS011;47611;54.932;73.338;2022-09-16T16:19:28;65.63;;;27.40;;
60993;SDS011;47611;54.932;73.338;2022-09-16T16:21:54;70.50;;;31.58;;
60993;SDS011;47611;54.932;73.338;2022-09-16T16:24:26;64.25;;;29.33;;
60993;SDS011;47611;54.932;73.338;2022-09-16T16:26:53;69.35;;;30.00;;
60993;SDS011;47611;54.932;73.338;2022-09-16T16:29:21;68.00;;;29.88;;
60993;SDS011;47611;54.932;73.338;2022-09-16T16:32:04;75.28;;;31.02;;
60993;SDS011;47611;54.932;73.338;2022-09-16T16:36:56;77.38;;;34.28;;
60993;SDS011;47611;54.932;73.338;2022-09-16T16:39:22;88.93;;;36.55;;
60993;SDS011;47611;54.932;73.338;2022-09-16T16:41:49;88.57;;;36.20;;
60993;SDS011;47611;54.932;73.338;2022-09-16T16:44:25;94.45;;;37.15;;
60993;SDS011;47611;54.932;73.338;2022-09-16T16:46:52;72.70;;;35.08;;
60993;SDS011;47611;54.932;73.338;2022-09-16T16:49:18;82.28;;;35.85;;
60993;SDS011;47611;54.932;73.338;2022-09-16T16:51:46;71.13;;;33.80;;
60993;SDS011;47611;54.932;73.338;2022-09-16T16:54:17;67.93;;;28.23;;
60993;SDS011;47611;54.932;73.338;2022-09-16T16:56:44;63.15;;;28.08;;
60993;SDS011;47611;54.932;73.338;2022-09-16T16:59:10;60.35;;;25.55;;
60993;SDS011;47611;54.932;73.338;2022-09-16T17:01:36;56.47;;;25.40;;
60993;SDS011;47611;54.932;73.338;2022-09-16T17:04:12;50.38;;;22.92;;
60993;SDS011;47611;54.932;73.338;2022-09-16T17:06:38;56.47;;;22.90;;
60993;SDS011;47611;54.932;73.338;2022-09-16T17:09:05;53.85;;;22.38;;
60993;SDS011;47611;54.932;73.338;2022-09-16T17:11:32;50.90;;;21.17;;
60993;SDS011;47611;54.932;73.338;2022-09-16T17:13:59;67.57;;;27.98;;
60993;SDS011;47611;54.932;73.338;2022-09-16T17:16:29;60.65;;;26.60;;
60993;SDS011;47611;54.932;73.338;2022-09-16T17:19:00;65.40;;;27.15;;
60993;SDS011;47611;54.932;73.338;2022-09-16T17:21:28;59.58;;;25.45;;
60993;SDS011;47611;54.932;73.338;2022-09-16T17:23:54;53.55;;;23.13;;
60993;SDS011;47611;54.932;73.338;2022-09-16T17:26:20;53.80;;;21.05;;
60993;SDS011;47611;54.932;73.338;2022-09-16T17:28:56;55.08;;;20.88;;
60993;SDS011;47611;54.932;73.338;2022-09-16T17:31:35;50.45;;;18.85;;
60993;SDS011;47611;54.932;73.338;2022-09-16T17:34:04;67.05;;;23.45;;
60993;SDS011;47611;54.932;73.338;2022-09-16T17:36:36;65.93;;;24.88;;
60993;SDS011;47611;54.932;73.338;2022-09-16T17:39:03;55.05;;;24.25;;
60993;SDS011;47611;54.932;73.338;2022-09-16T17:41:30;51.03;;;23.05;;
60993;SDS011;47611;54.932;73.338;2022-09-16T17:44:06;58.20;;;22.95;;
60993;SDS011;47611;54.932;73.338;2022-09-16T17:46:33;50.25;;;23.48;;
60993;SDS011;47611;54.932;73.338;2022-09-16T17:49:00;55.13;;;24.42;;
60993;SDS011;47611;54.932;73.338;2022-09-16T17:51:26;73.00;;;30.23;;
60993;SDS011;47611;54.932;73.338;2022-09-16T17:53:57;77.47;;;36.00;;